Time;durP1;ratioP1;P1;durP2;ratioP2;P2;SDS_P1;SDS_P2;PMS_P1;PMS_P2;Temp;Humidity;BMP_temperature;BMP_pressure;BME280_temperature;BME280_humidity;BME280_pressure;Samples;Min_cycle;Max_cycle;Signal;HPM_P1;HPM_P2
2021/06/24 00:00:45;;;;;;;13.45;3.50;;;;;;;12.96;82.70;101801.84;5968855;23;20896;31
2021/06/24 00:05:46;;;;;;;11.93;3.58;;;;;;;12.14;82.74;101698.44;5574253;23;20069;-85
2021/06/24 00:08:13;;;;;;;13.25;3.83;;;;;;;12.37;83.64;101746.91;4905195;29;20080;-85
2021/06/24 00:10:41;;;;;;;12.45;4.00;;;;;;;11.85;83.85;101675.00;4903871;29;20033;-85
2021/06/24 02:40:31;;;;;;;15.15;4.38;;;;;;;10.86;86.27;101692.25;4985577;23;20108;-85
2021/06/24 02:42:57;;;;;;;11.82;4.45;;;;;;;11.49;86.79;101798.88;4903689;29;20013;-85
2021/06/24 03:24:07;;;;;;;10.98;3.80;;;;;;;11.49;84.48;101724.25;5786341;23;20076;-83
2021/06/24 03:31:43;;;;;;;10.60;3.97;;;;;;;11.85;83.85;101742.44;6008063;23;20019;-82
2021/06/24 04:07:46;;;;;;;8.65;3.38;;;;;;;14.70;73.70;101663.03;5523313;23;20052;-85
2021/06/24 04:10:12;;;;;;;10.50;3.75;;;;;;;15.33;74.90;101827.22;4906378;29;20068;-86
2021/06/24 04:25:34;;;;;;;8.48;3.65;;;;;;;17.23;69.42;101858.09;5428745;23;20080;-85
2021/06/24 04:28:00;;;;;;;11.48;3.80;;;;;;;17.36;68.69;101858.03;4905531;29;20041;-83
2021/06/24 05:37:40;;;;;;;8.95;2.53;;;;;;;19.07;60.65;101779.41;5258332;23;20030;-86
2021/06/24 07:13:19;;;;;;;10.90;4.32;;;;;;;17.27;61.93;101637.09;4993793;23;20045;-86
2021/06/24 08:35:59;;;;;;;13.60;4.30;;;;;;;17.49;65.20;101783.63;5969066;23;20974;31
2021/06/24 11:11:49;;;;;;;11.85;5.50;;;;;;;17.02;68.73;101737.72;5940080;23;20741;31
2021/06/24 11:14:35;;;;;;;11.50;5.28;;;;;;;16.67;68.50;101658.44;4856208;29;20038;-85
2021/06/24 11:29:57;;;;;;;13.88;5.75;;;;;;;16.19;67.82;101558.41;5076249;23;20054;-85
2021/06/24 11:32:31;;;;;;;9.82;5.63;;;;;;;17.22;67.87;101726.72;4865214;29;20014;-85
2021/06/24 11:35:15;;;;;;;11.57;5.70;;;;;;;16.96;69.09;101694.25;4880374;29;20026;-85
2021/06/24 11:37:40;;;;;;;11.10;6.13;;;;;;;17.12;69.66;101731.81;4865435;29;20033;-85
2021/06/24 11:40:08;;;;;;;12.18;5.40;;;;;;;17.09;69.46;101730.34;4849764;29;20043;-84
2021/06/24 11:42:42;;;;;;;14.90;6.53;;;;;;;17.17;69.24;101728.41;4860044;29;20055;-84
2021/06/24 11:45:10;;;;;;;11.05;6.50;;;;;;;17.27;68.77;101721.41;4869476;29;20432;-84
2021/06/24 12:00:45;;;;;;;9.90;6.32;;;;;;;17.35;69.21;101703.97;4904449;23;20055;-83
2021/06/24 12:03:20;;;;;;;10.38;5.43;;;;;;;17.37;68.62;101713.59;4886960;29;20020;-84
2021/06/24 12:11:07;;;;;;;10.60;5.72;;;;;;;17.42;68.38;101695.75;5711974;23;20041;-84
2021/06/24 12:13:35;;;;;;;16.15;5.70;;;;;;;16.09;69.22;101493.78;4885246;29;20066;-85
2021/06/24 12:16:02;;;;;;;11.55;5.80;;;;;;;16.75;68.91;101600.31;4886358;29;20030;-85
2021/06/24 12:18:39;;;;;;;11.57;5.75;;;;;;;16.85;68.67;101620.53;4884368;29;20118;-85
2021/06/24 12:21:15;;;;;;;10.82;5.75;;;;;;;17.20;69.28;101679.84;4884488;29;20070;-84
2021/06/24 12:23:44;;;;;;;14.75;6.00;;;;;;;17.44;68.41;101686.31;4884937;29;20049;-85
2021/06/24 12:26:11;;;;;;;12.95;6.00;;;;;;;17.38;68.48;101673.59;4885676;29;20029;-85
2021/06/24 12:28:38;;;;;;;14.60;6.25;;;;;;;17.50;68.03;101674.56;4885440;29;20028;-85
2021/06/24 12:31:07;;;;;;;13.32;6.65;;;;;;;17.52;68.29;101672.44;4885658;29;20030;-84
2021/06/24 12:33:32;;;;;;;10.43;5.35;;;;;;;17.45;68.56;101668.97;4884654;29;20013;-85
2021/06/24 12:35:58;;;;;;;11.07;5.82;;;;;;;17.49;67.38;101670.19;4882617;29;20101;-84
2021/06/24 12:38:28;;;;;;;12.25;6.85;;;;;;;17.37;68.32;101669.22;4883274;29;20074;-84
2021/06/24 12:41:08;;;;;;;9.77;6.60;;;;;;;17.11;69.97;101657.53;4885076;29;20076;-84
2021/06/24 12:43:34;;;;;;;13.27;6.43;;;;;;;17.14;70.31;101662.50;4889198;29;20038;-85
2021/06/24 12:46:01;;;;;;;11.55;5.70;;;;;;;17.10;70.02;101665.91;4883382;29;20022;-85
2021/06/24 12:48:30;;;;;;;11.68;6.50;;;;;;;17.08;69.92;101665.28;4882453;29;20018;-85
2021/06/24 12:51:01;;;;;;;11.27;5.10;;;;;;;17.10;70.87;101657.75;4885053;29;20041;-84
2021/06/24 12:53:31;;;;;;;12.70;5.07;;;;;;;17.06;72.07;101667.41;4883479;29;20006;-85
2021/06/24 12:55:58;;;;;;;11.88;4.60;;;;;;;16.96;72.29;101662.47;4886124;29;20013;-85
2021/06/24 12:58:33;;;;;;;11.30;4.70;;;;;;;17.04;73.07;101664.91;4885991;29;20042;-84
2021/06/24 13:01:09;;;;;;;12.98;4.95;;;;;;;17.25;73.35;101660.97;4885767;29;20042;-84
2021/06/24 13:03:37;;;;;;;10.55;5.03;;;;;;;17.22;72.85;101675.03;4886218;29;20026;-84
2021/06/24 13:06:30;;;;;;;11.40;4.57;;;;;;;17.12;72.40;101677.41;4885955;29;20025;-85
2021/06/24 13:09:13;;;;;;;11.93;4.38;;;;;;;16.85;71.59;101679.47;4860947;29;20098;-84
2021/06/24 13:11:52;;;;;;;13.35;4.63;;;;;;;16.73;73.18;101667.63;4885368;29;20045;-85
2021/06/24 13:14:20;;;;;;;10.80;4.93;;;;;;;16.78;72.91;101690.38;4885552;29;20026;-84
2021/06/24 13:16:50;;;;;;;13.88;4.45;;;;;;;16.85;73.27;101698.50;4886030;29;20046;-84
2021/06/24 13:22:00;;;;;;;10.65;4.88;;;;;;;15.68;73.08;101518.63;5536052;23;20066;-82
2021/06/24 13:29:39;;;;;;;12.07;4.43;;;;;;;15.79;73.08;101526.06;4942022;23;20097;-84
2021/06/24 13:32:05;;;;;;;13.20;5.25;;;;;;;16.04;72.41;101552.47;4864104;29;20037;-84
2021/06/24 13:34:35;;;;;;;13.20;4.88;;;;;;;16.51;73.18;101619.03;4867765;29;20082;-84
2021/06/24 13:37:13;;;;;;;14.27;4.43;;;;;;;16.21;73.19;101562.59;4865114;29;20149;-85
2021/06/24 13:39:39;;;;;;;7.43;4.22;;;;;;;16.19;72.36;101539.41;4863002;29;20030;-85
2021/06/24 13:42:05;;;;;;;9.07;4.20;;;;;;;16.90;72.78;101698.69;4865700;29;20010;-84
2021/06/24 13:44:31;;;;;;;14.45;5.18;;;;;;;16.92;72.75;101693.88;4864048;29;20022;-84
2021/06/24 13:46:57;;;;;;;8.23;4.38;;;;;;;17.04;73.13;101681.22;4861381;29;20161;-83
2021/06/24 13:49:24;;;;;;;9.15;4.22;;;;;;;16.98;72.63;101684.81;4863073;29;20041;-84
2021/06/24 13:51:51;;;;;;;13.27;4.80;;;;;;;16.83;73.69;101679.69;4863272;29;20062;-84
2021/06/24 13:54:20;;;;;;;11.48;4.20;;;;;;;16.73;73.69;101682.03;4862425;29;20022;-84
2021/06/24 13:56:47;;;;;;;14.73;4.60;;;;;;;16.82;73.49;101672.59;4862075;29;20014;-84
2021/06/24 13:59:13;;;;;;;12.95;4.40;;;;;;;16.74;73.57;101674.72;4865368;29;20038;-84
2021/06/24 14:01:40;;;;;;;13.65;5.65;;;;;;;16.75;74.16;101685.38;4863087;29;20049;-83
2021/06/24 14:04:07;;;;;;;11.88;4.60;;;;;;;16.74;74.30;101680.16;4863656;29;20044;-84
2021/06/24 14:06:39;;;;;;;11.40;4.35;;;;;;;16.70;74.42;101687.91;4863141;29;20026;-83
2021/06/24 14:09:06;;;;;;;15.57;4.85;;;;;;;16.62;74.61;101680.00;4862530;29;20066;-84
2021/06/24 14:11:32;;;;;;;12.05;4.82;;;;;;;16.65;74.91;101676.84;4863412;29;20022;-84
2021/06/24 14:13:58;;;;;;;7.35;4.55;;;;;;;16.70;74.58;101684.34;4861375;29;20018;-83
2021/06/24 14:16:23;;;;;;;15.18;4.93;;;;;;;16.72;74.80;101676.81;4848586;29;20057;-85
2021/06/24 14:18:49;;;;;;;11.15;4.75;;;;;;;16.78;74.43;101684.94;4849916;29;20042;-84
2021/06/24 14:21:19;;;;;;;12.98;5.18;;;;;;;16.73;74.07;101687.47;4848496;29;20038;-84
2021/06/24 14:23:49;;;;;;;10.75;4.78;;;;;;;16.94;74.14;101685.47;4866555;29;20030;-84
2021/06/24 14:28:53;;;;;;;9.70;4.50;;;;;;;15.71;73.42;101508.16;5598987;23;20075;-83
2021/06/24 14:33:54;;;;;;;10.05;4.70;;;;;;;15.95;73.62;101516.59;5582685;23;20086;-84
2021/06/24 14:36:21;;;;;;;15.90;5.22;;;;;;;15.77;72.50;101511.91;4875097;29;20052;-85
2021/06/24 14:38:47;;;;;;;11.50;5.20;;;;;;;16.28;72.76;101600.56;4876930;29;20026;-83
2021/06/24 14:41:14;;;;;;;8.35;4.43;;;;;;;16.77;72.27;101672.41;4881529;29;20112;-84
2021/06/24 14:43:40;;;;;;;10.68;5.15;;;;;;;16.75;72.59;101681.84;4887272;29;20033;-85
2021/06/24 14:46:06;;;;;;;14.07;5.03;;;;;;;16.83;72.98;101692.47;4883491;29;20048;-84
2021/06/24 15:14:24;;;;;;;10.45;5.00;;;;;;;15.45;72.77;101479.22;5402820;23;20077;-85
2021/06/24 16:00:47;;;;;;;10.25;5.65;;;;;;;16.84;72.58;101626.16;5829664;23;20023;-84
2021/06/24 16:47:11;;;;;;;15.93;5.85;;;;;;;16.79;73.15;101604.25;4951483;23;20053;-84
2021/06/24 16:49:38;;;;;;;11.77;6.07;;;;;;;16.04;72.31;101471.84;4879784;29;20470;-83
2021/06/24 16:52:04;;;;;;;12.27;6.22;;;;;;;15.77;72.63;101433.22;4882161;29;20045;-84
2021/06/24 16:54:33;;;;;;;10.20;5.93;;;;;;;16.36;72.97;101494.41;4881398;29;20045;-83
2021/06/24 16:56:58;;;;;;;15.15;6.45;;;;;;;16.95;73.06;101579.22;4884617;29;20040;-82
2021/06/24 16:59:23;;;;;;;13.52;6.35;;;;;;;16.80;72.65;101557.81;4886470;29;20034;-81
2021/06/24 17:01:49;;;;;;;15.23;6.50;;;;;;;16.81;72.17;101570.34;4881811;29;20033;-82
2021/06/24 17:04:14;;;;;;;11.32;5.93;;;;;;;16.93;72.50;101575.91;4888333;29;20022;-82
2021/06/24 17:06:40;;;;;;;12.55;5.93;;;;;;;16.83;72.56;101562.81;4876761;29;20133;-83
2021/06/24 17:09:05;;;;;;;11.38;6.82;;;;;;;16.86;72.50;101575.97;4881823;29;20026;-83
2021/06/24 17:11:31;;;;;;;10.57;6.60;;;;;;;16.74;72.79;101553.25;4866711;29;20042;-84
2021/06/24 17:13:57;;;;;;;11.98;6.47;;;;;;;16.64;72.87;101540.16;4889366;29;20072;-83
2021/06/24 17:16:22;;;;;;;11.00;6.65;;;;;;;16.82;72.39;101563.88;4879682;29;20041;-82
2021/06/24 17:18:48;;;;;;;12.73;7.25;;;;;;;16.85;73.48;101560.72;4880000;29;20018;-83
2021/06/24 17:21:15;;;;;;;10.65;6.60;;;;;;;16.76;73.46;101543.03;4883929;29;20034;-82
2021/06/24 17:23:41;;;;;;;13.65;7.00;;;;;;;16.73;73.66;101551.59;4875292;29;20041;-82
2021/06/24 17:26:07;;;;;;;13.60;6.65;;;;;;;16.70;73.17;101556.63;4879856;29;20101;-81
2021/06/24 17:28:33;;;;;;;12.23;6.68;;;;;;;16.71;73.75;101556.41;4881561;29;20055;-83
2021/06/24 17:30:58;;;;;;;14.00;7.40;;;;;;;16.72;73.94;101552.66;4882533;29;20025;-84
2021/06/24 17:33:24;;;;;;;12.48;6.60;;;;;;;16.75;74.10;101563.06;4885824;29;20341;-83
2021/06/24 17:35:49;;;;;;;13.88;6.35;;;;;;;16.82;73.39;101558.44;4885261;29;20045;-84
2021/06/24 17:38:15;;;;;;;9.45;6.68;;;;;;;16.64;72.62;101550.19;4881802;29;20013;-82
2021/06/24 17:40:41;;;;;;;12.82;7.00;;;;;;;16.56;73.42;101555.91;4875254;29;20040;-83
2021/06/24 17:43:06;;;;;;;9.13;6.53;;;;;;;16.57;73.11;101543.97;4880079;29;20032;-83
2021/06/24 17:45:32;;;;;;;15.82;6.32;;;;;;;16.41;72.73;101531.75;4863185;29;20044;-82
2021/06/24 17:47:57;;;;;;;8.65;5.75;;;;;;;16.48;72.32;101553.44;4883103;29;20021;-83
2021/06/24 17:50:24;;;;;;;11.45;6.43;;;;;;;16.39;72.52;101536.56;4876033;29;20085;-83
2021/06/24 17:52:49;;;;;;;9.95;6.50;;;;;;;16.51;73.15;101548.41;4881855;29;20025;-81
2021/06/24 17:55:16;;;;;;;14.30;6.32;;;;;;;16.39;72.52;101532.00;4884209;29;20041;-82
2021/06/24 17:57:44;;;;;;;12.80;6.07;;;;;;;16.52;73.06;101552.78;4881418;29;20022;-83
2021/06/24 18:00:12;;;;;;;10.65;6.07;;;;;;;16.43;73.11;101527.78;4885306;29;20137;-83
2021/06/24 18:02:37;;;;;;;10.50;6.45;;;;;;;16.59;72.87;101545.44;4877462;29;20073;-81
2021/06/24 18:05:04;;;;;;;10.48;5.97;;;;;;;16.52;73.19;101546.50;4874823;29;20033;-81
2021/06/24 18:07:29;;;;;;;8.65;6.03;;;;;;;16.52;73.25;101541.91;4878151;29;20026;-82
2021/06/24 18:09:54;;;;;;;10.65;5.90;;;;;;;16.53;73.10;101537.34;4866177;29;20047;-84
2021/06/24 18:12:20;;;;;;;9.43;6.05;;;;;;;16.53;72.49;101540.03;4880430;29;20033;-84
2021/06/24 18:14:45;;;;;;;9.00;5.88;;;;;;;16.47;72.75;101527.34;4878298;29;20037;-82
2021/06/24 18:17:11;;;;;;;7.32;5.40;;;;;;;16.43;73.78;101526.94;4862625;29;20052;-83
2021/06/24 18:19:36;;;;;;;9.60;5.85;;;;;;;16.28;74.68;101516.38;4869032;29;20013;-84
2021/06/24 18:22:02;;;;;;;10.18;6.35;;;;;;;16.07;74.18;101501.28;4885090;29;20088;-84
2021/06/24 18:55:39;;;;;;;12.70;7.40;;;;;;;15.11;75.41;101373.84;4937055;23;20051;-83
2021/06/24 18:58:08;;;;;;;13.20;7.35;;;;;;;15.28;75.33;101396.72;4880823;29;20053;-82
2021/06/24 19:00:34;;;;;;;16.10;7.18;;;;;;;14.92;75.36;101346.59;4883771;29;20061;-82
2021/06/24 19:03:00;;;;;;;12.25;7.55;;;;;;;14.87;75.12;101348.31;4882511;29;20005;-81
2021/06/24 19:05:25;;;;;;;10.75;7.55;;;;;;;15.60;76.33;101461.88;4882360;29;20025;-81
2021/06/24 19:07:51;;;;;;;15.18;7.50;;;;;;;15.73;75.91;101495.22;4882523;29;20005;-81
2021/06/24 19:10:17;;;;;;;13.27;7.25;;;;;;;15.25;75.78;101399.84;4883616;29;20049;-81
2021/06/24 19:12:43;;;;;;;10.50;6.93;;;;;;;15.47;75.91;101447.31;4882151;29;20033;-81
2021/06/24 19:15:09;;;;;;;10.35;7.18;;;;;;;15.35;75.73;101411.06;4882306;29;20101;-81
2021/06/24 19:17:35;;;;;;;11.50;7.25;;;;;;;15.92;75.23;101504.28;4883426;29;20061;-82
2021/06/24 19:20:01;;;;;;;15.18;7.43;;;;;;;15.89;75.88;101504.75;4881532;29;20017;-82
2021/06/24 19:22:27;;;;;;;12.70;7.32;;;;;;;14.87;75.89;101351.84;4879100;29;20013;-80
2021/06/24 19:24:53;;;;;;;11.60;6.68;;;;;;;14.95;76.08;101384.13;4881428;29;20033;-81
2021/06/24 19:27:21;;;;;;;12.77;7.25;;;;;;;14.63;76.80;101341.72;4880916;29;20037;-81
2021/06/24 19:29:47;;;;;;;9.75;7.03;;;;;;;14.98;76.93;101385.56;4881776;29;20009;-82
2021/06/24 19:32:16;;;;;;;11.63;6.88;;;;;;;15.72;76.98;101498.13;4883489;29;20044;-82
2021/06/24 19:34:42;;;;;;;13.38;6.75;;;;;;;14.81;77.03;101374.38;4883169;29;20018;-82
2021/06/24 19:37:08;;;;;;;12.82;7.15;;;;;;;14.92;77.44;101406.22;4881196;29;20070;-83
2021/06/24 19:39:34;;;;;;;11.98;6.32;;;;;;;15.33;78.51;101469.25;4884556;29;20041;-83
2021/06/24 19:44:35;;;;;;;9.75;6.35;;;;;;;14.17;78.60;101329.06;4908063;23;20448;-82
2021/06/24 19:47:01;;;;;;;12.63;6.75;;;;;;;14.29;78.66;101370.69;4901854;29;20043;-82
2021/06/24 19:49:27;;;;;;;8.95;6.15;;;;;;;14.67;78.81;101435.03;4887259;29;20037;-83
2021/06/24 19:51:53;;;;;;;11.15;6.10;;;;;;;14.18;78.72;101358.63;4882954;29;20021;-84
2021/06/24 19:54:25;;;;;;;9.02;5.47;;;;;;;14.03;79.48;101352.59;4884136;29;20092;-84
2021/06/24 19:56:52;;;;;;;10.38;5.28;;;;;;;14.47;79.49;101422.34;4897220;29;20218;-83
2021/06/24 19:59:17;;;;;;;7.93;5.63;;;;;;;14.31;79.27;101398.41;4889681;29;20033;-82
